sensor_id;sensor_type;location;lat;lon;timestamp;P1;durP1;ratioP1;P2;durP2;ratioP2
68938;SDS011;59064;45.294;11.816;2024-03-02T00:00:36;11.40;;;3.30;;
68938;SDS011;59064;45.294;11.816;2024-03-02T00:03:02;14.30;;;6.70;;
68938;SDS011;59064;45.294;11.816;2024-03-02T00:05:28;12.10;;;4.20;;
68938;SDS011;59064;45.294;11.816;2024-03-02T00:10:21;8.30;;;4.20;;
68938;SDS011;59064;45.294;11.816;2024-03-02T00:12:56;11.30;;;5.90;;
68938;SDS011;59064;45.294;11.816;2024-03-02T00:18:03;11.30;;;5.90;;
68938;SDS011;59064;45.294;11.816;2024-03-02T00:20:30;12.60;;;5.10;;
68938;SDS011;59064;45.294;11.816;2024-03-02T00:23:01;14.10;;;7.00;;
68938;SDS011;59064;45.294;11.816;2024-03-02T00:25:39;14.50;;;6.70;;
68938;SDS011;59064;45.294;11.816;2024-03-02T00:30:59;15.90;;;6.60;;
68938;SDS011;59064;45.294;11.816;2024-03-02T00:33:30;13.90;;;6.30;;
68938;SDS011;59064;45.294;11.816;2024-03-02T00:36:07;11.30;;;5.70;;
68938;SDS011;59064;45.294;11.816;2024-03-02T00:38:34;14.40;;;6.50;;
68938;SDS011;59064;45.294;11.816;2024-03-02T00:41:06;12.70;;;6.40;;
68938;SDS011;59064;45.294;11.816;2024-03-02T00:43:41;14.50;;;6.00;;
68938;SDS011;59064;45.294;11.816;2024-03-02T00:46:07;17.10;;;6.50;;
68938;SDS011;59064;45.294;11.816;2024-03-02T00:48:33;12.20;;;6.60;;
68938;SDS011;59064;45.294;11.816;2024-03-02T00:51:01;14.90;;;5.60;;
68938;SDS011;59064;45.294;11.816;2024-03-02T00:53:28;13.60;;;6.40;;
68938;SDS011;59064;45.294;11.816;2024-03-02T00:55:54;14.70;;;7.60;;
68938;SDS011;59064;45.294;11.816;2024-03-02T00:58:21;14.60;;;6.40;;
68938;SDS011;59064;45.294;11.816;2024-03-02T01:00:47;13.60;;;6.60;;
68938;SDS011;59064;45.294;11.816;2024-03-02T01:03:13;13.30;;;7.00;;
68938;SDS011;59064;45.294;11.816;2024-03-02T01:05:44;11.70;;;6.40;;
68938;SDS011;59064;45.294;11.816;2024-03-02T01:08:10;16.50;;;6.30;;
68938;SDS011;59064;45.294;11.816;2024-03-02T01:10:36;10.30;;;5.40;;
68938;SDS011;59064;45.294;11.816;2024-03-02T01:13:01;13.00;;;5.90;;
68938;SDS011;59064;45.294;11.816;2024-03-02T01:15:27;9.00;;;4.60;;
68938;SDS011;59064;45.294;11.816;2024-03-02T01:17:53;12.90;;;5.40;;
68938;SDS011;59064;45.294;11.816;2024-03-02T01:20:18;14.50;;;5.90;;
68938;SDS011;59064;45.294;11.816;2024-03-02T01:22:44;10.40;;;5.80;;
68938;SDS011;59064;45.294;11.816;2024-03-02T01:25:09;15.80;;;5.80;;
68938;SDS011;59064;45.294;11.816;2024-03-02T01:27:35;14.90;;;5.50;;
68938;SDS011;59064;45.294;11.816;2024-03-02T01:30:00;16.10;;;6.90;;
68938;SDS011;59064;45.294;11.816;2024-03-02T01:32:26;16.40;;;7.50;;
68938;SDS011;59064;45.294;11.816;2024-03-02T01:34:52;14.40;;;7.20;;
68938;SDS011;59064;45.294;11.816;2024-03-02T01:37:17;14.10;;;7.90;;
68938;SDS011;59064;45.294;11.816;2024-03-02T01:39:43;13.00;;;7.60;;
68938;SDS011;59064;45.294;11.816;2024-03-02T01:42:09;16.80;;;6.70;;
68938;SDS011;59064;45.294;11.816;2024-03-02T01:44:35;16.90;;;6.70;;
68938;SDS011;59064;45.294;11.816;2024-03-02T01:47:01;12.90;;;6.80;;
68938;SDS011;59064;45.294;11.816;2024-03-02T01:49:27;16.00;;;7.30;;
68938;SDS011;59064;45.294;11.816;2024-03-02T01:51:52;15.20;;;7.60;;
68938;SDS011;59064;45.294;11.816;2024-03-02T01:54:18;12.10;;;6.80;;
68938;SDS011;59064;45.294;11.816;2024-03-02T01:56:43;16.40;;;7.40;;
68938;SDS011;59064;45.294;11.816;2024-03-02T01:59:10;13.20;;;7.00;;
68938;SDS011;59064;45.294;11.816;2024-03-02T02:01:36;14.20;;;7.40;;
68938;SDS011;59064;45.294;11.816;2024-03-02T02:04:01;18.00;;;7.80;;
68938;SDS011;59064;45.294;11.816;2024-03-02T02:06:27;14.60;;;6.30;;
68938;SDS011;59064;45.294;11.816;2024-03-02T02:08:52;17.10;;;7.40;;
68938;SDS011;59064;45.294;11.816;2024-03-02T02:11:18;14.10;;;6.50;;
68938;SDS011;59064;45.294;11.816;2024-03-02T02:13:44;18.00;;;6.80;;
68938;SDS011;59064;45.294;11.816;2024-03-02T02:16:09;13.00;;;5.70;;
68938;SDS011;59064;45.294;11.816;2024-03-02T02:18:35;15.40;;;6.00;;
68938;SDS011;59064;45.294;11.816;2024-03-02T02:21:03;12.10;;;6.40;;
68938;SDS011;59064;45.294;11.816;2024-03-02T02:23:28;14.90;;;5.40;;
68938;SDS011;59064;45.294;11.816;2024-03-02T02:25:54;15.20;;;5.70;;
68938;SDS011;59064;45.294;11.816;2024-03-02T02:28:19;11.70;;;4.90;;
68938;SDS011;59064;45.294;11.816;2024-03-02T02:30:45;14.80;;;5.00;;
68938;SDS011;59064;45.294;11.816;2024-03-02T02:33:10;13.90;;;5.50;;
68938;SDS011;59064;45.294;11.816;2024-03-02T02:35:36;13.80;;;4.40;;
68938;SDS011;59064;45.294;11.816;2024-03-02T02:38:02;9.40;;;5.00;;
68938;SDS011;59064;45.294;11.816;2024-03-02T02:40:28;10.60;;;4.70;;
68938;SDS011;59064;45.294;11.816;2024-03-02T02:42:57;14.40;;;6.10;;
68938;SDS011;59064;45.294;11.816;2024-03-02T02:45:24;17.30;;;5.90;;
68938;SDS011;59064;45.294;11.816;2024-03-02T02:47:49;7.20;;;3.50;;
68938;SDS011;59064;45.294;11.816;2024-03-02T02:50:15;12.90;;;3.70;;
68938;SDS011;59064;45.294;11.816;2024-03-02T02:52:41;9.90;;;4.70;;
68938;SDS011;59064;45.294;11.816;2024-03-02T02:55:08;11.50;;;5.20;;
68938;SDS011;59064;45.294;11.816;2024-03-02T02:57:38;13.70;;;5.70;;
68938;SDS011;59064;45.294;11.816;2024-03-02T03:00:06;11.00;;;5.60;;
68938;SDS011;59064;45.294;11.816;2024-03-02T03:02:43;10.90;;;4.20;;
68938;SDS011;59064;45.294;11.816;2024-03-02T03:05:11;11.50;;;5.30;;
68938;SDS011;59064;45.294;11.816;2024-03-02T03:07:37;15.00;;;5.40;;
68938;SDS011;59064;45.294;11.816;2024-03-02T03:10:04;11.50;;;5.00;;
68938;SDS011;59064;45.294;11.816;2024-03-02T03:12:31;14.20;;;5.90;;
68938;SDS011;59064;45.294;11.816;2024-03-02T03:14:57;10.00;;;5.30;;
68938;SDS011;59064;45.294;11.816;2024-03-02T03:17:23;12.00;;;5.50;;
68938;SDS011;59064;45.294;11.816;2024-03-02T03:19:49;9.60;;;5.10;;
68938;SDS011;59064;45.294;11.816;2024-03-02T03:22:15;9.60;;;4.00;;
68938;SDS011;59064;45.294;11.816;2024-03-02T03:24:40;11.80;;;4.80;;
68938;SDS011;59064;45.294;11.816;2024-03-02T03:27:06;10.80;;;5.20;;
68938;SDS011;59064;45.294;11.816;2024-03-02T03:29:31;13.30;;;4.80;;
68938;SDS011;59064;45.294;11.816;2024-03-02T03:31:57;9.70;;;4.30;;
68938;SDS011;59064;45.294;11.816;2024-03-02T03:34:22;4.80;;;2.30;;
68938;SDS011;59064;45.294;11.816;2024-03-02T03:36:48;12.70;;;6.10;;
68938;SDS011;59064;45.294;11.816;2024-03-02T03:39:13;11.60;;;5.10;;
68938;SDS011;59064;45.294;11.816;2024-03-02T03:41:40;12.20;;;4.90;;
68938;SDS011;59064;45.294;11.816;2024-03-02T03:44:05;10.40;;;4.00;;
68938;SDS011;59064;45.294;11.816;2024-03-02T03:46:31;7.80;;;3.50;;
68938;SDS011;59064;45.294;11.816;2024-03-02T03:48:56;9.10;;;3.30;;
68938;SDS011;59064;45.294;11.816;2024-03-02T03:51:22;11.10;;;4.40;;
68938;SDS011;59064;45.294;11.816;2024-03-02T03:53:48;13.70;;;5.20;;
68938;SDS011;59064;45.294;11.816;2024-03-02T03:56:13;14.70;;;4.50;;
68938;SDS011;59064;45.294;11.816;2024-03-02T03:58:39;9.30;;;5.10;;
68938;SDS011;59064;45.294;11.816;2024-03-02T04:01:04;11.30;;;5.60;;
68938;SDS011;59064;45.294;11.816;2024-03-02T04:03:30;10.10;;;5.20;;
68938;SDS011;59064;45.294;11.816;2024-03-02T04:05:55;15.60;;;5.80;;
68938;SDS011;59064;45.294;11.816;2024-03-02T04:08:21;13.10;;;5.20;;
68938;SDS011;59064;45.294;11.816;2024-03-02T04:10:46;11.50;;;6.00;;
68938;SDS011;59064;45.294;11.816;2024-03-02T04:13:12;12.30;;;5.90;;
68938;SDS011;59064;45.294;11.816;2024-03-02T04:15:38;14.20;;;6.30;;
68938;SDS011;59064;45.294;11.816;2024-03-02T04:18:03;13.30;;;6.00;;
68938;SDS011;59064;45.294;11.816;2024-03-02T04:20:29;12.50;;;5.80;;
68938;SDS011;59064;45.294;11.816;2024-03-02T04:22:55;13.10;;;6.10;;
68938;SDS011;59064;45.294;11.816;2024-03-02T04:25:20;17.60;;;6.80;;
68938;SDS011;59064;45.294;11.816;2024-03-02T04:27:46;11.30;;;5.80;;
68938;SDS011;59064;45.294;11.816;2024-03-02T04:30:12;12.10;;;5.20;;
68938;SDS011;59064;45.294;11.816;2024-03-02T04:32:37;10.90;;;5.50;;
68938;SDS011;59064;45.294;11.816;2024-03-02T04:35:04;14.60;;;6.20;;
68938;SDS011;59064;45.294;11.816;2024-03-02T04:37:34;11.40;;;6.20;;
68938;SDS011;59064;45.294;11.816;2024-03-02T04:39:59;16.40;;;7.20;;
68938;SDS011;59064;45.294;11.816;2024-03-02T04:42:25;15.90;;;7.70;;
68938;SDS011;59064;45.294;11.816;2024-03-02T04:44:50;13.90;;;6.70;;
68938;SDS011;59064;45.294;11.816;2024-03-02T04:47:16;12.90;;;5.80;;
68938;SDS011;59064;45.294;11.816;2024-03-02T04:49:41;13.20;;;6.80;;
68938;SDS011;59064;45.294;11.816;2024-03-02T04:52:07;16.10;;;6.80;;
68938;SDS011;59064;45.294;11.816;2024-03-02T04:54:32;15.30;;;7.20;;
68938;SDS011;59064;45.294;11.816;2024-03-02T04:57:00;12.40;;;7.00;;
68938;SDS011;59064;45.294;11.816;2024-03-02T04:59:25;15.10;;;6.90;;
68938;SDS011;59064;45.294;11.816;2024-03-02T05:01:50;18.40;;;7.10;;
68938;SDS011;59064;45.294;11.816;2024-03-02T05:04:16;12.50;;;6.30;;
68938;SDS011;59064;45.294;11.816;2024-03-02T05:06:41;9.80;;;6.00;;
68938;SDS011;59064;45.294;11.816;2024-03-02T05:09:07;11.70;;;5.80;;
68938;SDS011;59064;45.294;11.816;2024-03-02T05:11:34;18.40;;;7.30;;
68938;SDS011;59064;45.294;11.816;2024-03-02T05:14:03;11.90;;;6.70;;
68938;SDS011;59064;45.294;11.816;2024-03-02T05:16:32;16.60;;;7.20;;
68938;SDS011;59064;45.294;11.816;2024-03-02T05:18:58;15.80;;;7.30;;
68938;SDS011;59064;45.294;11.816;2024-03-02T05:21:23;13.80;;;6.20;;
68938;SDS011;59064;45.294;11.816;2024-03-02T05:23:51;15.20;;;6.20;;
68938;SDS011;59064;45.294;11.816;2024-03-02T05:26:17;17.50;;;6.70;;
68938;SDS011;59064;45.294;11.816;2024-03-02T05:28:42;14.20;;;6.30;;
68938;SDS011;59064;45.294;11.816;2024-03-02T05:31:11;11.40;;;5.90;;
68938;SDS011;59064;45.294;11.816;2024-03-02T05:33:39;12.60;;;6.40;;
68938;SDS011;59064;45.294;11.816;2024-03-02T05:36:05;11.30;;;5.40;;
68938;SDS011;59064;45.294;11.816;2024-03-02T05:38:31;13.50;;;6.90;;
68938;SDS011;59064;45.294;11.816;2024-03-02T05:40:57;12.40;;;5.30;;
68938;SDS011;59064;45.294;11.816;2024-03-02T05:43:22;15.50;;;6.30;;
68938;SDS011;59064;45.294;11.816;2024-03-02T05:45:48;17.50;;;6.20;;
68938;SDS011;59064;45.294;11.816;2024-03-02T05:48:14;11.20;;;5.90;;
68938;SDS011;59064;45.294;11.816;2024-03-02T05:50:39;9.70;;;4.70;;
68938;SDS011;59064;45.294;11.816;2024-03-02T05:53:05;9.60;;;4.20;;
68938;SDS011;59064;45.294;11.816;2024-03-02T05:55:31;11.20;;;5.70;;
68938;SDS011;59064;45.294;11.816;2024-03-02T05:57:56;10.50;;;4.70;;
68938;SDS011;59064;45.294;11.816;2024-03-02T06:00:30;8.20;;;4.80;;
68938;SDS011;59064;45.294;11.816;2024-03-02T06:02:56;10.00;;;4.70;;
68938;SDS011;59064;45.294;11.816;2024-03-02T06:05:22;10.60;;;4.90;;
68938;SDS011;59064;45.294;11.816;2024-03-02T06:07:48;10.40;;;5.30;;
68938;SDS011;59064;45.294;11.816;2024-03-02T06:10:13;9.40;;;4.90;;
68938;SDS011;59064;45.294;11.816;2024-03-02T06:12:39;9.70;;;4.60;;
68938;SDS011;59064;45.294;11.816;2024-03-02T06:15:05;8.30;;;4.90;;
68938;SDS011;59064;45.294;11.816;2024-03-02T06:17:31;10.50;;;5.00;;
68938;SDS011;59064;45.294;11.816;2024-03-02T06:19:56;9.90;;;4.10;;
68938;SDS011;59064;45.294;11.816;2024-03-02T06:22:22;10.20;;;5.00;;
68938;SDS011;59064;45.294;11.816;2024-03-02T06:24:50;8.70;;;4.30;;
68938;SDS011;59064;45.294;11.816;2024-03-02T06:27:16;12.70;;;4.50;;
68938;SDS011;59064;45.294;11.816;2024-03-02T06:29:41;12.60;;;4.90;;
68938;SDS011;59064;45.294;11.816;2024-03-02T06:32:07;9.40;;;4.60;;
68938;SDS011;59064;45.294;11.816;2024-03-02T06:34:32;6.50;;;3.60;;
68938;SDS011;59064;45.294;11.816;2024-03-02T06:36:58;8.00;;;4.40;;
68938;SDS011;59064;45.294;11.816;2024-03-02T06:39:23;9.90;;;4.40;;
68938;SDS011;59064;45.294;11.816;2024-03-02T06:41:51;8.80;;;4.10;;
68938;SDS011;59064;45.294;11.816;2024-03-02T06:44:17;8.90;;;4.10;;
68938;SDS011;59064;45.294;11.816;2024-03-02T06:46:42;9.30;;;3.90;;
68938;SDS011;59064;45.294;11.816;2024-03-02T06:49:08;10.60;;;5.00;;
68938;SDS011;59064;45.294;11.816;2024-03-02T06:51:35;9.10;;;3.90;;
68938;SDS011;59064;45.294;11.816;2024-03-02T06:54:00;8.60;;;4.10;;
68938;SDS011;59064;45.294;11.816;2024-03-02T06:56:26;11.10;;;4.80;;
68938;SDS011;59064;45.294;11.816;2024-03-02T06:58:51;9.80;;;3.90;;
68938;SDS011;59064;45.294;11.816;2024-03-02T07:01:17;11.20;;;4.70;;
68938;SDS011;59064;45.294;11.816;2024-03-02T07:03:43;10.70;;;3.90;;
68938;SDS011;59064;45.294;11.816;2024-03-02T07:06:09;11.20;;;4.50;;
68938;SDS011;59064;45.294;11.816;2024-03-02T07:08:34;9.60;;;5.00;;
68938;SDS011;59064;45.294;11.816;2024-03-02T07:11:00;17.60;;;9.10;;
68938;SDS011;59064;45.294;11.816;2024-03-02T07:13:25;28.10;;;12.10;;
68938;SDS011;59064;45.294;11.816;2024-03-02T07:15:51;9.00;;;5.50;;
68938;SDS011;59064;45.294;11.816;2024-03-02T07:18:32;10.50;;;5.80;;
68938;SDS011;59064;45.294;11.816;2024-03-02T07:21:06;12.40;;;5.30;;
68938;SDS011;59064;45.294;11.816;2024-03-02T07:23:33;11.30;;;5.00;;
68938;SDS011;59064;45.294;11.816;2024-03-02T07:25:59;9.00;;;4.60;;
68938;SDS011;59064;45.294;11.816;2024-03-02T07:28:26;6.40;;;2.60;;
68938;SDS011;59064;45.294;11.816;2024-03-02T07:31:02;7.80;;;4.30;;
68938;SDS011;59064;45.294;11.816;2024-03-02T07:33:29;8.50;;;4.40;;
68938;SDS011;59064;45.294;11.816;2024-03-02T07:35:55;11.00;;;4.70;;
68938;SDS011;59064;45.294;11.816;2024-03-02T07:38:21;12.30;;;6.60;;
68938;SDS011;59064;45.294;11.816;2024-03-02T07:40:47;16.80;;;10.00;;
68938;SDS011;59064;45.294;11.816;2024-03-02T07:43:17;10.40;;;5.70;;
68938;SDS011;59064;45.294;11.816;2024-03-02T07:45:42;9.40;;;4.90;;
68938;SDS011;59064;45.294;11.816;2024-03-02T07:48:08;12.00;;;4.40;;
68938;SDS011;59064;45.294;11.816;2024-03-02T07:50:34;10.20;;;3.70;;
68938;SDS011;59064;45.294;11.816;2024-03-02T07:53:03;10.40;;;4.90;;
68938;SDS011;59064;45.294;11.816;2024-03-02T07:55:32;10.70;;;4.40;;
68938;SDS011;59064;45.294;11.816;2024-03-02T07:57:58;9.60;;;4.10;;
68938;SDS011;59064;45.294;11.816;2024-03-02T08:00:23;9.30;;;3.80;;
68938;SDS011;59064;45.294;11.816;2024-03-02T08:02:50;5.00;;;1.90;;
68938;SDS011;59064;45.294;11.816;2024-03-02T08:05:17;8.70;;;3.70;;
68938;SDS011;59064;45.294;11.816;2024-03-02T08:07:44;9.40;;;3.40;;
68938;SDS011;59064;45.294;11.816;2024-03-02T08:10:10;8.20;;;3.40;;
68938;SDS011;59064;45.294;11.816;2024-03-02T08:12:36;8.80;;;3.00;;
68938;SDS011;59064;45.294;11.816;2024-03-02T08:15:02;7.90;;;3.40;;
68938;SDS011;59064;45.294;11.816;2024-03-02T08:17:29;13.30;;;4.00;;
68938;SDS011;59064;45.294;11.816;2024-03-02T08:19:55;12.90;;;3.90;;
68938;SDS011;59064;45.294;11.816;2024-03-02T08:22:21;9.10;;;3.20;;
68938;SDS011;59064;45.294;11.816;2024-03-02T08:24:47;10.80;;;3.70;;
68938;SDS011;59064;45.294;11.816;2024-03-02T08:27:13;5.80;;;2.80;;
68938;SDS011;59064;45.294;11.816;2024-03-02T08:29:39;7.60;;;4.00;;
68938;SDS011;59064;45.294;11.816;2024-03-02T08:32:06;7.20;;;2.70;;
68938;SDS011;59064;45.294;11.816;2024-03-02T08:34:32;5.20;;;2.70;;
68938;SDS011;59064;45.294;11.816;2024-03-02T08:36:59;10.50;;;3.50;;
68938;SDS011;59064;45.294;11.816;2024-03-02T08:39:25;12.80;;;3.80;;
68938;SDS011;59064;45.294;11.816;2024-03-02T08:41:50;10.20;;;4.10;;
68938;SDS011;59064;45.294;11.816;2024-03-02T08:44:16;6.80;;;3.50;;
68938;SDS011;59064;45.294;11.816;2024-03-02T08:46:42;7.80;;;3.80;;
68938;SDS011;59064;45.294;11.816;2024-03-02T08:49:07;9.10;;;3.50;;
68938;SDS011;59064;45.294;11.816;2024-03-02T08:51:33;7.80;;;3.90;;
68938;SDS011;59064;45.294;11.816;2024-03-02T08:53:59;8.60;;;4.20;;
68938;SDS011;59064;45.294;11.816;2024-03-02T08:56:24;12.70;;;4.60;;
68938;SDS011;59064;45.294;11.816;2024-03-02T08:58:51;6.20;;;2.90;;
68938;SDS011;59064;45.294;11.816;2024-03-02T09:01:17;7.20;;;3.20;;
68938;SDS011;59064;45.294;11.816;2024-03-02T09:03:44;9.50;;;4.60;;
68938;SDS011;59064;45.294;11.816;2024-03-02T09:06:10;5.70;;;3.60;;
68938;SDS011;59064;45.294;11.816;2024-03-02T09:08:36;10.80;;;4.90;;
68938;SDS011;59064;45.294;11.816;2024-03-02T09:11:07;8.50;;;4.90;;
68938;SDS011;59064;45.294;11.816;2024-03-02T09:13:33;12.00;;;5.40;;
68938;SDS011;59064;45.294;11.816;2024-03-02T09:15:59;9.70;;;4.90;;
68938;SDS011;59064;45.294;11.816;2024-03-02T09:18:24;10.90;;;5.00;;
68938;SDS011;59064;45.294;11.816;2024-03-02T09:20:50;8.10;;;4.40;;
68938;SDS011;59064;45.294;11.816;2024-03-02T09:23:15;13.20;;;6.00;;
68938;SDS011;59064;45.294;11.816;2024-03-02T09:25:40;11.60;;;5.80;;
68938;SDS011;59064;45.294;11.816;2024-03-02T09:28:06;9.60;;;4.30;;
68938;SDS011;59064;45.294;11.816;2024-03-02T09:30:32;9.50;;;4.50;;
68938;SDS011;59064;45.294;11.816;2024-03-02T09:32:58;11.70;;;5.40;;
68938;SDS011;59064;45.294;11.816;2024-03-02T09:35:24;9.70;;;3.60;;
68938;SDS011;59064;45.294;11.816;2024-03-02T09:37:50;11.10;;;5.20;;
68938;SDS011;59064;45.294;11.816;2024-03-02T09:40:16;10.30;;;4.10;;
68938;SDS011;59064;45.294;11.816;2024-03-02T09:42:41;10.60;;;4.80;;
68938;SDS011;59064;45.294;11.816;2024-03-02T09:45:08;9.10;;;5.20;;
68938;SDS011;59064;45.294;11.816;2024-03-02T09:47:34;8.70;;;4.00;;
68938;SDS011;59064;45.294;11.816;2024-03-02T09:49:59;9.40;;;4.20;;
68938;SDS011;59064;45.294;11.816;2024-03-02T09:52:25;6.90;;;3.50;;
68938;SDS011;59064;45.294;11.816;2024-03-02T09:54:53;9.10;;;4.50;;
68938;SDS011;59064;45.294;11.816;2024-03-02T09:57:18;7.10;;;3.50;;
68938;SDS011;59064;45.294;11.816;2024-03-02T09:59:44;5.90;;;3.10;;
68938;SDS011;59064;45.294;11.816;2024-03-02T10:02:10;6.60;;;2.30;;
68938;SDS011;59064;45.294;11.816;2024-03-02T10:04:36;7.40;;;3.00;;
68938;SDS011;59064;45.294;11.816;2024-03-02T10:07:16;4.20;;;1.90;;
68938;SDS011;59064;45.294;11.816;2024-03-02T10:09:48;3.90;;;2.00;;
68938;SDS011;59064;45.294;11.816;2024-03-02T10:12:17;5.80;;;2.30;;
68938;SDS011;59064;45.294;11.816;2024-03-02T10:14:44;5.60;;;2.90;;
68938;SDS011;59064;45.294;11.816;2024-03-02T10:17:12;5.50;;;2.80;;
68938;SDS011;59064;45.294;11.816;2024-03-02T10:19:39;8.30;;;3.30;;
68938;SDS011;59064;45.294;11.816;2024-03-02T10:22:06;7.50;;;3.30;;
68938;SDS011;59064;45.294;11.816;2024-03-02T10:24:39;7.90;;;3.40;;
68938;SDS011;59064;45.294;11.816;2024-03-02T10:27:07;8.20;;;2.60;;
68938;SDS011;59064;45.294;11.816;2024-03-02T10:29:39;7.10;;;2.20;;
68938;SDS011;59064;45.294;11.816;2024-03-02T10:32:08;3.50;;;1.60;;
68938;SDS011;59064;45.294;11.816;2024-03-02T10:34:35;5.50;;;2.40;;
68938;SDS011;59064;45.294;11.816;2024-03-02T10:37:01;4.00;;;2.10;;
68938;SDS011;59064;45.294;11.816;2024-03-02T10:39:28;4.20;;;1.90;;
68938;SDS011;59064;45.294;11.816;2024-03-02T10:41:53;5.10;;;2.20;;
68938;SDS011;59064;45.294;11.816;2024-03-02T10:44:21;4.50;;;1.80;;
68938;SDS011;59064;45.294;11.816;2024-03-02T10:46:49;5.30;;;3.00;;
68938;SDS011;59064;45.294;11.816;2024-03-02T10:49:16;4.30;;;1.90;;
68938;SDS011;59064;45.294;11.816;2024-03-02T10:51:42;4.30;;;1.80;;
68938;SDS011;59064;45.294;11.816;2024-03-02T10:54:08;6.80;;;2.40;;
68938;SDS011;59064;45.294;11.816;2024-03-02T10:56:41;4.50;;;1.80;;
68938;SDS011;59064;45.294;11.816;2024-03-02T11:01:55;5.00;;;2.50;;
68938;SDS011;59064;45.294;11.816;2024-03-02T11:04:26;5.80;;;1.90;;
68938;SDS011;59064;45.294;11.816;2024-03-02T11:06:56;3.70;;;1.70;;
68938;SDS011;59064;45.294;11.816;2024-03-02T11:09:28;5.60;;;1.40;;
68938;SDS011;59064;45.294;11.816;2024-03-02T11:12:06;7.90;;;2.80;;
68938;SDS011;59064;45.294;11.816;2024-03-02T11:14:40;4.10;;;1.80;;
68938;SDS011;59064;45.294;11.816;2024-03-02T11:17:10;5.00;;;2.40;;
68938;SDS011;59064;45.294;11.816;2024-03-02T11:19:38;5.70;;;3.20;;
68938;SDS011;59064;45.294;11.816;2024-03-02T11:22:05;8.80;;;4.10;;
68938;SDS011;59064;45.294;11.816;2024-03-02T11:24:31;9.60;;;3.50;;
68938;SDS011;59064;45.294;11.816;2024-03-02T11:27:04;6.60;;;3.50;;
68938;SDS011;59064;45.294;11.816;2024-03-02T11:32:06;5.80;;;3.10;;
68938;SDS011;59064;45.294;11.816;2024-03-02T11:34:39;7.00;;;3.00;;
68938;SDS011;59064;45.294;11.816;2024-03-02T11:37:10;6.90;;;3.30;;
68938;SDS011;59064;45.294;11.816;2024-03-02T11:39:37;7.90;;;3.40;;
68938;SDS011;59064;45.294;11.816;2024-03-02T11:42:05;8.70;;;3.50;;
68938;SDS011;59064;45.294;11.816;2024-03-02T11:44:34;6.60;;;3.40;;
68938;SDS011;59064;45.294;11.816;2024-03-02T11:47:01;5.80;;;3.60;;
68938;SDS011;59064;45.294;11.816;2024-03-02T11:49:44;7.60;;;3.80;;
68938;SDS011;59064;45.294;11.816;2024-03-02T11:52:19;11.10;;;6.40;;
68938;SDS011;59064;45.294;11.816;2024-03-02T11:54:46;10.50;;;5.60;;
68938;SDS011;59064;45.294;11.816;2024-03-02T11:57:13;11.30;;;3.80;;
68938;SDS011;59064;45.294;11.816;2024-03-02T11:59:40;9.10;;;5.80;;
68938;SDS011;59064;45.294;11.816;2024-03-02T12:02:06;9.90;;;6.00;;
68938;SDS011;59064;45.294;11.816;2024-03-02T12:04:31;9.10;;;4.90;;
68938;SDS011;59064;45.294;11.816;2024-03-02T12:06:58;8.50;;;4.30;;
68938;SDS011;59064;45.294;11.816;2024-03-02T12:09:25;8.50;;;4.50;;
68938;SDS011;59064;45.294;11.816;2024-03-02T12:14:32;11.20;;;4.30;;
68938;SDS011;59064;45.294;11.816;2024-03-02T12:16:59;6.80;;;3.70;;
68938;SDS011;59064;45.294;11.816;2024-03-02T12:19:25;8.00;;;4.40;;
68938;SDS011;59064;45.294;11.816;2024-03-02T12:21:54;7.80;;;4.30;;
68938;SDS011;59064;45.294;11.816;2024-03-02T12:24:21;6.30;;;2.80;;
68938;SDS011;59064;45.294;11.816;2024-03-02T12:26:47;5.20;;;2.80;;
68938;SDS011;59064;45.294;11.816;2024-03-02T12:29:14;8.70;;;3.70;;
68938;SDS011;59064;45.294;11.816;2024-03-02T12:31:41;4.40;;;2.40;;
68938;SDS011;59064;45.294;11.816;2024-03-02T12:34:08;6.50;;;2.80;;
68938;SDS011;59064;45.294;11.816;2024-03-02T12:36:38;4.80;;;2.40;;
68938;SDS011;59064;45.294;11.816;2024-03-02T12:39:04;5.70;;;2.90;;
68938;SDS011;59064;45.294;11.816;2024-03-02T12:41:29;7.50;;;3.50;;
68938;SDS011;59064;45.294;11.816;2024-03-02T12:43:55;7.90;;;4.50;;
68938;SDS011;59064;45.294;11.816;2024-03-02T12:46:20;7.00;;;3.60;;
68938;SDS011;59064;45.294;11.816;2024-03-02T12:48:46;6.20;;;3.10;;
68938;SDS011;59064;45.294;11.816;2024-03-02T12:51:11;6.10;;;2.70;;
68938;SDS011;59064;45.294;11.816;2024-03-02T12:53:37;4.80;;;2.60;;
68938;SDS011;59064;45.294;11.816;2024-03-02T12:56:03;8.60;;;4.10;;
68938;SDS011;59064;45.294;11.816;2024-03-02T12:58:29;6.70;;;4.20;;
68938;SDS011;59064;45.294;11.816;2024-03-02T13:01:05;6.70;;;3.90;;
68938;SDS011;59064;45.294;11.816;2024-03-02T13:03:35;7.30;;;4.40;;
68938;SDS011;59064;45.294;11.816;2024-03-02T13:06:01;7.30;;;2.90;;
68938;SDS011;59064;45.294;11.816;2024-03-02T13:08:27;11.60;;;3.00;;
68938;SDS011;59064;45.294;11.816;2024-03-02T13:10:53;5.00;;;3.30;;
68938;SDS011;59064;45.294;11.816;2024-03-02T13:13:19;7.70;;;3.60;;
68938;SDS011;59064;45.294;11.816;2024-03-02T13:15:45;6.50;;;3.10;;
68938;SDS011;59064;45.294;11.816;2024-03-02T13:18:11;4.80;;;1.80;;
68938;SDS011;59064;45.294;11.816;2024-03-02T13:20:36;5.90;;;2.50;;
68938;SDS011;59064;45.294;11.816;2024-03-02T13:23:04;5.70;;;2.40;;
68938;SDS011;59064;45.294;11.816;2024-03-02T13:25:29;4.90;;;2.50;;
68938;SDS011;59064;45.294;11.816;2024-03-02T13:27:56;6.70;;;2.30;;
68938;SDS011;59064;45.294;11.816;2024-03-02T13:30:22;3.10;;;1.40;;
68938;SDS011;59064;45.294;11.816;2024-03-02T13:32:47;5.40;;;2.20;;
68938;SDS011;59064;45.294;11.816;2024-03-02T13:35:13;3.70;;;1.70;;
68938;SDS011;59064;45.294;11.816;2024-03-02T13:37:38;5.50;;;2.10;;
68938;SDS011;59064;45.294;11.816;2024-03-02T13:40:05;5.30;;;3.00;;
68938;SDS011;59064;45.294;11.816;2024-03-02T13:42:31;5.30;;;2.30;;
68938;SDS011;59064;45.294;11.816;2024-03-02T13:44:56;6.00;;;3.20;;
68938;SDS011;59064;45.294;11.816;2024-03-02T13:47:22;4.40;;;2.20;;
68938;SDS011;59064;45.294;11.816;2024-03-02T13:49:47;4.40;;;2.20;;
68938;SDS011;59064;45.294;11.816;2024-03-02T13:52:14;6.40;;;3.20;;
68938;SDS011;59064;45.294;11.816;2024-03-02T13:54:40;7.50;;;3.10;;
68938;SDS011;59064;45.294;11.816;2024-03-02T13:57:07;6.10;;;2.80;;
68938;SDS011;59064;45.294;11.816;2024-03-02T13:59:34;4.60;;;2.80;;
68938;SDS011;59064;45.294;11.816;2024-03-02T14:02:02;4.50;;;2.40;;
68938;SDS011;59064;45.294;11.816;2024-03-02T14:04:33;6.40;;;3.50;;
68938;SDS011;59064;45.294;11.816;2024-03-02T14:06:59;9.20;;;3.50;;
68938;SDS011;59064;45.294;11.816;2024-03-02T14:09:26;5.30;;;2.40;;
68938;SDS011;59064;45.294;11.816;2024-03-02T14:11:52;3.00;;;1.40;;
68938;SDS011;59064;45.294;11.816;2024-03-02T14:14:18;4.00;;;2.30;;
68938;SDS011;59064;45.294;11.816;2024-03-02T14:16:44;2.50;;;1.20;;
68938;SDS011;59064;45.294;11.816;2024-03-02T14:19:10;6.10;;;2.00;;
68938;SDS011;59064;45.294;11.816;2024-03-02T14:21:37;5.50;;;2.20;;
68938;SDS011;59064;45.294;11.816;2024-03-02T14:24:03;3.20;;;1.80;;
68938;SDS011;59064;45.294;11.816;2024-03-02T14:26:28;3.20;;;1.20;;
68938;SDS011;59064;45.294;11.816;2024-03-02T14:28:54;3.80;;;1.40;;
68938;SDS011;59064;45.294;11.816;2024-03-02T14:31:20;3.80;;;1.10;;
68938;SDS011;59064;45.294;11.816;2024-03-02T14:33:46;3.70;;;1.80;;
68938;SDS011;59064;45.294;11.816;2024-03-02T14:36:11;3.20;;;1.20;;
68938;SDS011;59064;45.294;11.816;2024-03-02T14:38:37;6.30;;;1.90;;
68938;SDS011;59064;45.294;11.816;2024-03-02T14:41:04;4.50;;;2.10;;